ADDS METAR Data INFO
IDs: Format: Raw Decoded Include TAF

Data at: 0501 UTC 21 Feb 2018

KLYH 201454Z 19005KT 7SM OVC005 14/13 A3044 RMK AO2 CIG 003V009 SLP307 T01440128 51012
KLYH 201354Z 00000KT 3/4SM R04/P6000FT BR OVC002 11/11 A3044 RMK AO2 SLP308 T01110111
KLYH 201254Z 00000KT 3/4SM R04/4500V5500FT BR OVC002 10/10 A3043 RMK AO2 SLP305 T01000100
KLYH 201212Z 00000KT 1/2SM R04/2000VP6000FT FG BKN002 OVC009 09/09 A3041 RMK AO2 T00890089
KLYH 201204Z 00000KT 1 1/4SM R04/5000VP6000FT BR BKN002 OVC009 09/09 A3041 RMK AO2 T00890089
KLYH 201154Z 17003KT 2 1/2SM BR OVC009 09/09 A3040 RMK AO2 CIG 003V010 SLP297 70001 T00940094 10094 20083 51008
KLYH 201146Z 17003KT 2SM BR OVC007 09/09 A3040 RMK AO2 CIG 004V010 T00940094
KLYH 201128Z 00000KT 4SM BR OVC009 09/09 A3040 RMK AO2 CIG 004V010 T00940094
KLYH 201110Z AUTO 18004KT 6SM BR OVC010 09/09 A3040 RMK AO2 T00940094
KLYH 201054Z AUTO 18004KT 5SM BR FEW002 OVC009 09/09 A3039 RMK AO2 SLP293 T00940094
KLYH 201049Z AUTO 00000KT 4SM BR SCT002 OVC009 09/09 A3040 RMK AO2
KLYH 201027Z AUTO 00000KT 3SM BR OVC003 09/09 A3039 RMK AO2 T00940094
KLYH 201019Z AUTO 00000KT 1 1/2SM R04/4000VP6000FT BR OVC003 09/09 A3039 RMK AO2 T00940094
KLYH 200954Z AUTO 00000KT 1/2SM R04/2600V3000FT FG VV002 09/09 A3038 RMK AO2 SLP288 T00940094
KLYH 200922Z AUTO 31004KT 3/4SM R04/2200VP6000FT BR VV002 09/09 A3038 RMK AO2 T00890089
KLYH 200915Z AUTO 00000KT 3/4SM R04/2000V2200FT BR VV002 09/09 A3037 RMK AO2 T00940094
KLYH 200906Z AUTO 20003KT 1SM R04/2200V3000FT BR VV002 09/09 A3037 RMK AO2 T00940089
KLYH 200854Z AUTO 00000KT 3/4SM R04/2200V2600FT BR VV002 09/09 A3037 RMK AO2 SLP286 T00940094 58003
KLYH 200842Z AUTO 20006KT 1/2SM R04/1800V2400FT FG VV002 09/09 A3037 RMK AO2 T00940094
KLYH 200819Z AUTO 21005KT 1/2SM R04/1800V2000FT FG VV002 09/09 A3038 RMK AO2 T00890089
KLYH 200754Z AUTO 21006KT 1/4SM R04/1200V1400FT FG VV002 09/09 A3038 RMK AO2 SLP289 T00890089
KLYH 200725Z AUTO 20005KT 1/4SM R04/1400FT FG VV002 09/09 A3039 RMK AO2 T00890089
KLYH 200654Z AUTO 20008KT 1/4SM R04/1400V1600FT FG VV001 08/08 A3038 RMK AO2 SLP290 T00830083
KLYH 200650Z AUTO 20008KT 1/4SM R04/1400V1800FT FG VV002 08/08 A3038 RMK AO2
KLYH 200640Z AUTO 19007KT 1/2SM R04/1800V2000FT FG VV002 08/08 A3038 RMK AO2 T00830083
KLYH 200610Z AUTO 21004KT 3/4SM R04/4000V5000FT BR VV002 08/08 A3038 RMK AO2 T00830083
KLYH 200600Z AUTO 20003KT 1 3/4SM R04/5500VP6000FT BR OVC002 08/08 A3038 RMK AO2 T00830083
KLYH 200554Z AUTO 00000KT 3SM BR OVC002 08/08 A3038 RMK AO2 SLP292 T00830083 10083 20067 58001
KLYH 200454Z AUTO 19004KT 4SM BR OVC002 08/07 A3039 RMK AO2 SLP293 T00780072 401000039
KLYH 200421Z AUTO 00000KT 3SM BR BKN004 OVC008 07/07 A3038 RMK AO2 T00720072
KLYH 200409Z AUTO 00000KT 7SM OVC005 07/07 A3039 RMK AO2 T00720072
KLYH 200354Z AUTO 00000KT 6SM BR BKN003 OVC008 08/07 A3039 RMK AO2 SLP293 T00780072
KLYH 200333Z AUTO 20005KT 6SM BR BKN003 OVC010 08/07 A3038 RMK AO2 T00780072
KLYH 200321Z 19005KT 6SM BR SCT003 OVC011 08/08 A3038 RMK AO2 T00780078
KLYH 200306Z 20005KT 7SM BKN003 BKN013 08/07 A3038 RMK AO2 T00780072
KLYH 200254Z 21006KT 8SM SCT004 BKN042 08/07 A3039 RMK AO2 SLP293 T00780072 51008
KLYH 200241Z 19006KT 10SM FEW004 SCT011 BKN042 07/07 A3038 RMK AO2 T00720072
KLYH 200219Z 20004KT 10SM OVC013 08/08 A3039 RMK AO2 T00830078
KLYH 200154Z 22003KT 10SM OVC016 08/08 A3038 RMK AO2 SLP291 T00830078
KLYH 200128Z 18005KT 10SM BKN020 08/07 A3038 RMK AO2 T00780072
KLYH 200054Z 19003KT 10SM SCT017 08/07 A3037 RMK AO2 SLP289 T00780067
KLYH 200043Z 21003KT 10SM BKN017 08/07 A3037 RMK AO2 T00830072
KLYH 192354Z 20003KT 10SM SCT022 08/07 A3036 RMK AO2 SLP284 T00830067 10100 20061 53001
KLYH 192254Z 18005KT 10SM BKN015 OVC020 09/07 A3036 RMK AO2 SLP284 T00890072
KLYH 192154Z VRB04KT 10SM SCT010 OVC023 09/07 A3035 RMK AO2 SLP280 T00940072
KLYH 192142Z 18005KT 10SM BKN010 OVC023 09/07 A3035 RMK AO2 T00940072
KLYH 192054Z 19004KT 10SM OVC008 09/07 A3036 RMK AO2 SLP283 T00890067 56014
KLYH 191954Z 21006KT 10SM OVC007 08/06 A3036 RMK AO2 CIG 006V011 SLP283 T00830061
KLYH 191854Z 19005KT 10SM OVC006 08/06 A3038 RMK AO2 SLP290 T00780061
KLYH 191843Z 19004KT 10SM OVC005 07/06 A3038 RMK AO2 T00720061
KLYH 191754Z 00000KT 3SM BR OVC002 06/06 A3040 RMK AO2 SLP298 60001 T00610056 10061 20039 58020
KLYH 191740Z 00000KT 3SM BR OVC002 06/06 A3041 RMK AO2 T00560056
KLYH 191721Z 00000KT 2SM BR OVC002 06/05 A3042 RMK AO2 T00560050